Time;durP1;ratioP1;P1;durP2;ratioP2;P2;SDS_P1;SDS_P2;PMS_P1;PMS_P2;Temp;Humidity;BMP_temperature;BMP_pressure;BME280_temperature;BME280_humidity;BME280_pressure;Samples;Min_cycle;Max_cycle;Signal;HPM_P1;HPM_P2
2022/01/27 00:01:47;;;;;;;519.35;275.55;;;2.30;1.00;;;;;;5031059;28;20041;-75
2022/01/27 00:04:18;;;;;;;480.48;260.20;;;2.30;1.00;;;;;;5053075;28;20456;-75
2022/01/27 00:06:47;;;;;;;512.20;275.60;;;2.30;1.00;;;;;;5037485;28;20105;-75
2022/01/27 00:09:20;;;;;;;501.05;274.35;;;2.30;1.00;;;;;;5036739;28;20049;-75
2022/01/27 00:11:48;;;;;;;503.63;269.98;;;2.30;1.00;;;;;;5035869;28;20087;-75
2022/01/27 00:14:19;;;;;;;509.13;277.15;;;2.30;1.00;;;;;;5034505;28;20061;-75
2022/01/27 00:16:55;;;;;;;491.98;268.80;;;2.30;1.00;;;;;;5039912;28;20042;-75
2022/01/27 00:19:22;;;;;;;496.70;273.23;;;2.50;1.00;;;;;;5039961;28;20045;-75
2022/01/27 00:21:51;;;;;;;472.92;261.88;;;2.40;1.00;;;;;;5041478;28;20061;-75
2022/01/27 00:24:19;;;;;;;470.25;262.10;;;2.40;1.00;;;;;;5041902;28;20076;-74
2022/01/27 00:26:47;;;;;;;499.05;271.90;;;2.40;1.00;;;;;;5040320;28;20387;-75
2022/01/27 00:29:14;;;;;;;479.90;264.63;;;2.50;1.00;;;;;;5041862;28;20049;-74
2022/01/27 00:31:42;;;;;;;480.70;266.50;;;2.50;1.00;;;;;;5038772;28;20148;-75
2022/01/27 00:34:09;;;;;;;446.05;249.00;;;2.50;1.00;;;;;;5040044;28;20064;-75
2022/01/27 00:36:37;;;;;;;442.30;246.23;;;2.50;1.00;;;;;;5054612;28;20041;-75
2022/01/27 00:39:08;;;;;;;453.55;254.18;;;2.40;1.00;;;;;;5039212;28;20388;-75
2022/01/27 00:41:35;;;;;;;404.95;229.15;;;2.40;99.90;;;;;;5041652;28;20072;-76
2022/01/27 00:44:03;;;;;;;441.83;246.18;;;2.50;1.00;;;;;;5039298;28;20136;-76
2022/01/27 00:46:32;;;;;;;465.27;258.10;;;2.50;99.90;;;;;;5047636;28;20048;-75
2022/01/27 00:49:00;;;;;;;424.10;233.45;;;2.40;99.90;;;;;;5038821;28;20057;-76
2022/01/27 00:51:30;;;;;;;450.98;250.00;;;2.40;99.90;;;;;;5061695;28;20033;-76
2022/01/27 00:54:04;;;;;;;483.95;262.95;;;2.40;76.50;;;;;;5077308;28;20061;-76
2022/01/27 00:56:42;;;;;;;486.75;265.50;;;2.50;1.00;;;;;;5061072;28;20044;-76
2022/01/27 00:59:28;;;;;;;495.42;270.55;;;2.50;99.90;;;;;;5061553;28;20030;-77
2022/01/27 01:01:59;;;;;;;511.88;277.95;;;2.50;99.90;;;;;;5077937;28;20026;-76
2022/01/27 01:04:31;;;;;;;520.53;281.63;;;2.50;99.90;;;;;;5060731;28;20050;-75
2022/01/27 01:06:59;;;;;;;508.17;280.08;;;2.50;1.00;;;;;;5060429;28;20045;-76
2022/01/27 01:15:09;;;;;;;497.02;269.15;;;2.50;1.00;;;;;;5060663;28;20041;-76
2022/01/27 01:17:47;;;;;;;511.48;274.33;;;2.50;1.00;;;;;;5060447;28;20072;-76
2022/01/27 01:31:29;;;;;;;360.83;193.32;;;2.30;1.00;;;;;;5060525;28;20052;-75
2022/01/27 01:34:10;;;;;;;351.48;193.32;;;2.30;1.00;;;;;;5060704;28;20057;-75
2022/01/27 01:36:45;;;;;;;369.20;200.27;;;2.30;1.00;;;;;;5060671;28;20075;-76
2022/01/27 01:39:13;;;;;;;380.13;200.20;;;2.30;1.00;;;;;;5060006;28;20034;-76
2022/01/27 01:41:41;;;;;;;377.17;203.73;;;2.30;99.90;;;;;;5050670;28;20483;-74
2022/01/27 01:44:10;;;;;;;336.90;175.85;;;2.30;1.00;;;;;;5036066;28;20054;-75
2022/01/27 01:46:38;;;;;;;324.40;171.55;;;2.30;1.00;;;;;;5035580;28;20037;-75
2022/01/27 01:49:06;;;;;;;336.42;180.88;;;2.20;99.90;;;;;;5036589;28;20042;-75
2022/01/27 01:51:36;;;;;;;310.80;167.68;;;2.20;1.00;;;;;;5034927;28;20077;-74
2022/01/27 01:54:04;;;;;;;303.25;160.27;;;2.20;99.90;;;;;;5034856;28;20425;-75
2022/01/27 01:56:32;;;;;;;304.98;159.93;;;2.20;99.90;;;;;;5038635;28;20045;-75
2022/01/27 01:58:59;;;;;;;300.40;158.23;;;2.20;99.90;;;;;;5055928;28;20037;-75
2022/01/27 02:01:28;;;;;;;292.17;155.00;;;2.20;1.00;;;;;;5050866;28;20056;-74
2022/01/27 02:03:56;;;;;;;305.00;161.95;;;2.10;99.90;;;;;;5038161;28;20116;-76
2022/01/27 02:06:30;;;;;;;313.77;172.48;;;2.10;1.00;;;;;;5051052;28;20041;-76
2022/01/27 02:20:02;;;;;;;329.55;180.00;;;2.00;99.90;;;;;;5035637;28;20038;-75
2022/01/27 02:22:30;;;;;;;311.83;167.85;;;2.00;99.90;;;;;;5034486;28;20511;-76
2022/01/27 02:24:57;;;;;;;300.95;157.98;;;2.10;1.00;;;;;;5035716;28;20419;-76
2022/01/27 02:27:24;;;;;;;296.65;159.45;;;2.00;1.00;;;;;;5036287;28;20042;-74
2022/01/27 02:29:52;;;;;;;308.90;164.13;;;2.00;1.00;;;;;;5035989;28;20045;-75
2022/01/27 02:32:22;;;;;;;318.80;167.20;;;2.00;1.00;;;;;;5035881;28;20372;-75
2022/01/27 02:34:49;;;;;;;264.35;142.60;;;2.00;1.00;;;;;;5039855;28;20430;-74
2022/01/27 02:37:19;;;;;;;270.60;143.90;;;1.90;1.00;;;;;;5048595;28;20038;-75
2022/01/27 02:39:46;;;;;;;228.02;125.95;;;1.90;99.90;;;;;;5014149;28;20096;-76
2022/01/27 02:42:21;;;;;;;247.82;134.45;;;1.80;99.90;;;;;;5013931;28;20042;-75
2022/01/27 02:44:58;;;;;;;277.95;146.73;;;1.80;1.00;;;;;;5015029;28;20511;-75
2022/01/27 02:47:26;;;;;;;288.80;152.52;;;1.80;1.00;;;;;;5029238;28;20542;-77
2022/01/27 02:49:54;;;;;;;304.20;161.60;;;1.80;1.00;;;;;;5036437;28;20041;-77
2022/01/27 02:52:23;;;;;;;293.63;158.55;;;1.90;1.00;;;;;;5036662;28;20053;-77
2022/01/27 02:54:50;;;;;;;279.35;146.32;;;1.80;1.00;;;;;;5036485;28;20045;-76
2022/01/27 02:57:20;;;;;;;283.52;150.13;;;1.70;99.90;;;;;;5034513;28;20132;-77
2022/01/27 02:59:48;;;;;;;235.65;129.75;;;1.80;1.00;;;;;;5036465;28;20491;-76
2022/01/27 03:02:16;;;;;;;233.02;125.07;;;1.80;1.00;;;;;;5035527;28;20514;-76
2022/01/27 03:04:43;;;;;;;249.23;135.20;;;1.80;1.00;;;;;;5050604;28;20069;-77
2022/01/27 03:07:11;;;;;;;235.77;125.47;;;1.80;1.00;;;;;;5034522;28;20045;-76
2022/01/27 03:09:40;;;;;;;226.35;120.40;;;1.80;1.00;;;;;;5035146;28;20483;-76
2022/01/27 03:12:10;;;;;;;308.50;168.30;;;1.80;99.90;;;;;;5035304;28;20133;-76
2022/01/27 03:14:39;;;;;;;327.48;179.27;;;1.70;99.90;;;;;;5037017;28;20050;-77
2022/01/27 03:17:07;;;;;;;321.85;176.57;;;1.60;99.90;;;;;;5046234;28;20088;-76
2022/01/27 03:19:36;;;;;;;300.42;160.70;;;1.50;99.90;;;;;;5042883;28;20474;-76
2022/01/27 03:22:05;;;;;;;267.58;143.70;;;1.40;1.00;;;;;;5061353;28;20045;-76
2022/01/27 03:24:33;;;;;;;290.40;160.07;;;1.20;1.00;;;;;;5051689;28;20377;-76
2022/01/27 03:27:02;;;;;;;298.25;160.70;;;1.10;1.00;;;;;;5051554;28;20046;-76
2022/01/27 03:29:30;;;;;;;283.17;156.57;;;1.00;1.00;;;;;;5051744;28;20049;-76
2022/01/27 03:31:57;;;;;;;270.90;149.07;;;1.00;99.90;;;;;;5043207;28;20045;-76
2022/01/27 03:34:25;;;;;;;276.77;151.00;;;1.00;99.90;;;;;;5037753;28;20053;-77
2022/01/27 03:36:53;;;;;;;258.90;144.77;;;0.90;99.90;;;;;;5039491;28;20498;-77
2022/01/27 03:39:22;;;;;;;257.50;142.82;;;0.80;99.90;;;;;;5035603;28;20045;-76
2022/01/27 03:41:51;;;;;;;277.58;151.70;;;0.80;1.00;;;;;;5034769;28;20133;-76
2022/01/27 03:44:21;;;;;;;275.80;147.18;;;0.80;1.00;;;;;;5037481;28;20049;-76
2022/01/27 03:46:49;;;;;;;251.23;138.00;;;0.70;1.00;;;;;;5040278;28;20069;-76
2022/01/27 03:49:17;;;;;;;248.85;135.23;;;0.70;99.90;;;;;;5040648;28;20046;-75
2022/01/27 03:51:45;;;;;;;244.70;135.95;;;0.70;99.90;;;;;;5035567;28;20156;-76
2022/01/27 03:54:13;;;;;;;248.18;135.15;;;0.60;99.90;;;;;;5049274;28;20075;-75
2022/01/27 03:56:41;;;;;;;231.50;125.35;;;0.50;1.00;;;;;;5034028;28;20053;-76
2022/01/27 03:59:09;;;;;;;196.10;111.78;;;0.60;1.00;;;;;;5033676;28;20129;-76
2022/01/27 04:01:39;;;;;;;217.68;120.88;;;0.50;6.00;;;;;;5033708;28;20041;-76
2022/01/27 04:04:06;;;;;;;199.38;109.68;;;0.50;1.00;;;;;;5032311;28;20421;-76
2022/01/27 04:06:36;;;;;;;187.60;101.13;;;0.50;1.00;;;;;;5047279;28;20061;-77
2022/01/27 04:09:05;;;;;;;178.00;96.53;;;0.50;3.90;;;;;;5052564;28;20109;-77
2022/01/27 04:11:33;;;;;;;168.27;90.53;;;0.40;1.00;;;;;;5049204;28;20041;-77
2022/01/27 04:14:01;;;;;;;173.38;95.07;;;0.40;1.00;;;;;;5040176;28;20084;-76
2022/01/27 04:16:28;;;;;;;185.85;97.90;;;0.40;1.00;;;;;;5038978;28;20071;-75
2022/01/27 04:18:57;;;;;;;157.20;87.28;;;0.40;1.00;;;;;;5036480;28;20091;-77
2022/01/27 04:21:25;;;;;;;141.98;79.00;;;0.30;1.00;;;;;;5033390;28;20042;-76
2022/01/27 04:23:53;;;;;;;139.60;74.50;;;0.30;1.00;;;;;;5031941;28;20069;-77
2022/01/27 04:26:26;;;;;;;136.85;76.63;;;0.20;99.90;;;;;;5033417;28;20041;-76
2022/01/27 04:28:54;;;;;;;154.85;84.85;;;0.20;1.00;;;;;;5034679;28;20095;-77
2022/01/27 04:31:24;;;;;;;179.15;99.63;;;0.20;1.00;;;;;;5035135;28;20441;-76
2022/01/27 04:33:52;;;;;;;175.52;95.18;;;0.20;99.90;;;;;;5033425;28;20188;-77
2022/01/27 04:36:27;;;;;;;165.77;91.97;;;0.20;1.00;;;;;;5053316;28;20498;-77
2022/01/27 04:39:02;;;;;;;255.65;134.10;;;0.20;1.00;;;;;;5048210;28;20144;-76
2022/01/27 04:41:36;;;;;;;184.75;100.78;;;0.20;1.00;;;;;;5036114;28;20103;-77
2022/01/27 04:44:13;;;;;;;175.95;97.53;;;0.10;1.00;;;;;;5049779;28;20140;-76
2022/01/27 04:46:46;;;;;;;182.93;103.63;;;0.10;1.00;;;;;;5033135;28;20052;-77
2022/01/27 04:49:14;;;;;;;175.38;103.43;;;0.00;99.90;;;;;;5033160;28;20042;-76
2022/01/27 04:51:43;;;;;;;187.77;106.88;;;-0.10;1.00;;;;;;5036306;28;20048;-76
2022/01/27 04:54:16;;;;;;;160.10;97.60;;;-0.10;99.90;;;;;;5037188;28;20058;-76
2022/01/27 04:56:44;;;;;;;134.02;78.97;;;-0.10;1.00;;;;;;5042846;28;20430;-75
2022/01/27 04:59:17;;;;;;;128.38;75.18;;;-0.20;1.00;;;;;;5034263;28;20041;-76
2022/01/27 05:01:48;;;;;;;129.88;78.25;;;-0.30;1.00;;;;;;5035073;28;20049;-76
2022/01/27 05:04:18;;;;;;;163.00;96.43;;;-0.40;99.90;;;;;;5037186;28;20041;-76
2022/01/27 05:06:49;;;;;;;206.27;118.75;;;-0.50;99.90;;;;;;5052903;28;20156;-76
2022/01/27 05:09:17;;;;;;;197.65;118.00;;;-0.50;1.00;;;;;;5036699;28;20390;-76
2022/01/27 05:11:50;;;;;;;175.10;104.60;;;-0.60;1.00;;;;;;5035910;28;20140;-77
2022/01/27 05:14:20;;;;;;;178.55;108.60;;;-0.60;99.90;;;;;;5037223;28;20494;-75
2022/01/27 05:16:48;;;;;;;185.18;109.63;;;-0.60;1.00;;;;;;5037110;28;20053;-77
2022/01/27 05:19:16;;;;;;;193.15;110.50;;;-0.50;1.00;;;;;;5036152;28;20053;-77
2022/01/27 05:21:44;;;;;;;151.02;86.22;;;-0.60;1.00;;;;;;5036599;28;20056;-76
2022/01/27 05:24:14;;;;;;;283.98;142.75;;;-0.50;1.00;;;;;;5036626;28;20044;-77
2022/01/27 05:26:41;;;;;;;161.80;90.30;;;-0.60;1.00;;;;;;5035583;28;20079;-76
2022/01/27 05:29:10;;;;;;;155.27;82.47;;;-0.60;1.00;;;;;;5035324;28;20133;-76
2022/01/27 05:31:38;;;;;;;150.75;81.07;;;-0.60;99.90;;;;;;5035069;28;20073;-77
2022/01/27 05:34:06;;;;;;;172.07;91.72;;;-0.70;1.00;;;;;;5035640;28;20112;-76
2022/01/27 05:36:33;;;;;;;180.45;98.65;;;-0.70;1.00;;;;;;5035622;28;20136;-77
2022/01/27 05:39:01;;;;;;;194.43;105.50;;;-0.70;1.00;;;;;;5037391;28;20037;-76
2022/01/27 05:41:30;;;;;;;222.07;123.20;;;-0.70;1.00;;;;;;5035709;28;20103;-77
2022/01/27 05:43:58;;;;;;;232.65;129.63;;;-0.70;99.90;;;;;;5035547;28;20068;-77
2022/01/27 05:46:25;;;;;;;235.98;128.23;;;-0.70;99.90;;;;;;5037370;28;20041;-76
2022/01/27 05:48:53;;;;;;;244.25;132.77;;;-0.70;1.00;;;;;;5037286;28;20046;-76
2022/01/27 05:51:20;;;;;;;277.75;147.60;;;-0.80;1.00;;;;;;5036195;28;20044;-76
2022/01/27 05:53:48;;;;;;;306.90;158.88;;;-0.80;1.00;;;;;;5034844;28;20103;-75
2022/01/27 05:56:15;;;;;;;302.13;149.30;;;-0.80;1.00;;;;;;5036771;28;20049;-76
2022/01/27 05:58:44;;;;;;;319.15;151.38;;;-0.80;99.90;;;;;;5036753;28;20038;-77
2022/01/27 06:01:12;;;;;;;295.55;139.38;;;-0.70;99.90;;;;;;5036800;28;20417;-76
2022/01/27 06:03:39;;;;;;;244.02;123.57;;;-0.60;99.90;;;;;;5036600;28;20128;-76
2022/01/27 06:06:07;;;;;;;247.23;123.60;;;-0.60;1.00;;;;;;5035823;28;20391;-75
2022/01/27 06:08:34;;;;;;;258.20;130.27;;;-0.60;99.90;;;;;;5036159;28;20117;-75
2022/01/27 06:11:02;;;;;;;380.35;167.60;;;-0.50;99.90;;;;;;5036907;28;20498;-76
2022/01/27 06:13:30;;;;;;;447.33;190.52;;;-0.50;99.90;;;;;;5035023;28;20053;-76
2022/01/27 06:15:59;;;;;;;569.75;227.20;;;-0.50;99.90;;;;;;5036011;28;20048;-76
2022/01/27 06:18:27;;;;;;;654.38;264.58;;;-0.60;99.90;;;;;;5036210;28;20116;-76
2022/01/27 06:20:59;;;;;;;473.50;199.88;;;-0.60;1.00;;;;;;5034985;28;20060;-76
2022/01/27 06:23:27;;;;;;;388.42;174.90;;;-0.60;99.90;;;;;;5036610;28;20410;-76
2022/01/27 06:25:54;;;;;;;319.58;149.07;;;-0.50;99.90;;;;;;5032824;28;20494;-76
2022/01/27 06:28:22;;;;;;;431.05;179.38;;;-0.50;1.00;;;;;;5029560;28;20056;-76
2022/01/27 06:30:49;;;;;;;383.77;169.20;;;-0.50;99.90;;;;;;5034924;28;20455;-76
2022/01/27 06:33:18;;;;;;;321.70;148.27;;;-0.40;99.90;;;;;;5035847;28;20099;-75
2022/01/27 06:35:46;;;;;;;291.17;136.35;;;-0.40;99.90;;;;;;5048899;28;20368;-75
2022/01/27 06:38:13;;;;;;;288.60;139.05;;;-0.40;99.90;;;;;;5031067;28;20139;-76
2022/01/27 06:40:41;;;;;;;295.92;142.40;;;-0.40;99.90;;;;;;5034479;28;20136;-76
2022/01/27 06:43:08;;;;;;;292.17;142.95;;;-0.30;99.90;;;;;;5033950;28;20041;-76
2022/01/27 06:45:36;;;;;;;305.52;145.52;;;-0.30;99.90;;;;;;5036041;28;20045;-75
2022/01/27 06:48:03;;;;;;;292.38;143.77;;;-0.30;99.90;;;;;;5034838;28;20530;-76
2022/01/27 06:50:34;;;;;;;332.35;161.38;;;-0.20;99.90;;;;;;5035776;28;20055;-76
2022/01/27 06:53:01;;;;;;;312.45;154.45;;;-0.20;99.90;;;;;;5042288;28;20053;-76
2022/01/27 06:55:29;;;;;;;346.58;158.02;;;-0.10;99.90;;;;;;5014988;28;20108;-76
2022/01/27 06:57:56;;;;;;;361.52;166.05;;;-0.20;99.90;;;;;;5014996;28;20133;-77
2022/01/27 07:00:24;;;;;;;292.25;144.30;;;-0.20;99.90;;;;;;5015224;28;20578;-76
2022/01/27 07:02:51;;;;;;;318.65;152.40;;;-0.10;99.90;;;;;;5015418;28;20069;-76
2022/01/27 07:05:19;;;;;;;354.17;166.02;;;-0.10;99.90;;;;;;5029288;28;20045;-77
2022/01/27 07:07:48;;;;;;;403.60;176.77;;;0.10;99.90;;;;;;5049442;28;20124;-76
2022/01/27 07:10:15;;;;;;;363.15;163.52;;;0.00;99.90;;;;;;5049720;28;20049;-76
2022/01/27 07:12:43;;;;;;;302.88;150.45;;;0.00;1.00;;;;;;5051788;28;20041;-75
2022/01/27 07:15:12;;;;;;;331.20;153.88;;;0.20;1.00;;;;;;5045663;28;20513;-76
2022/01/27 07:17:42;;;;;;;285.65;147.20;;;0.30;1.00;;;;;;5036389;28;20068;-76
2022/01/27 07:20:11;;;;;;;289.33;142.85;;;0.40;1.00;;;;;;5052712;28;20132;-77
2022/01/27 07:22:38;;;;;;;290.00;146.27;;;0.50;99.90;;;;;;5037594;28;20124;-77
2022/01/27 07:25:08;;;;;;;289.52;148.25;;;0.60;99.90;;;;;;5049923;28;20099;-76
2022/01/27 07:27:36;;;;;;;288.90;149.88;;;0.70;99.90;;;;;;5034089;28;20449;-77
2022/01/27 07:30:06;;;;;;;336.88;172.40;;;0.90;1.00;;;;;;5036156;28;20069;-76
2022/01/27 07:32:33;;;;;;;340.08;180.50;;;1.00;99.90;;;;;;5036159;28;20050;-76
2022/01/27 07:35:01;;;;;;;349.33;182.93;;;1.00;99.90;;;;;;5025468;28;20096;-75
2022/01/27 07:37:30;;;;;;;343.90;177.23;;;1.00;1.00;;;;;;5031538;28;20041;-76
2022/01/27 07:40:00;;;;;;;314.45;164.93;;;1.20;99.90;;;;;;5049448;28;20057;-77
2022/01/27 07:42:29;;;;;;;333.85;174.35;;;1.10;1.00;;;;;;5051698;28;20067;-77
2022/01/27 07:44:57;;;;;;;341.20;171.27;;;1.10;99.90;;;;;;5036566;28;20057;-77
2022/01/27 07:47:24;;;;;;;310.10;162.98;;;1.20;1.00;;;;;;5043618;28;20045;-76
2022/01/27 07:49:52;;;;;;;295.42;160.35;;;1.30;99.90;;;;;;5044192;28;20034;-76
2022/01/27 07:52:20;;;;;;;293.52;155.50;;;1.30;1.00;;;;;;5042833;28;20057;-76
2022/01/27 07:54:48;;;;;;;306.60;154.68;;;1.30;1.00;;;;;;5044906;28;20080;-78
2022/01/27 07:57:16;;;;;;;318.25;159.90;;;1.40;1.00;;;;;;5024277;28;20065;-75
2022/01/27 07:59:45;;;;;;;311.58;159.32;;;1.60;1.00;;;;;;5025734;28;20057;-75
2022/01/27 08:02:13;;;;;;;324.15;164.07;;;1.80;1.00;;;;;;5033446;28;20080;-75
2022/01/27 08:04:40;;;;;;;483.17;215.60;;;2.00;99.90;;;;;;5038065;28;20049;-76
2022/01/27 08:07:08;;;;;;;507.67;239.32;;;2.20;1.00;;;;;;5034775;28;20101;-75
2022/01/27 08:09:35;;;;;;;373.10;184.32;;;2.40;76.00;;;;;;5034377;28;20087;-76
2022/01/27 08:12:03;;;;;;;353.83;177.57;;;2.40;99.90;;;;;;5030050;28;20056;-76
2022/01/27 08:14:31;;;;;;;329.70;177.85;;;2.50;1.00;;;;;;5024263;28;20052;-76
2022/01/27 08:17:00;;;;;;;297.95;156.23;;;2.50;99.90;;;;;;5049942;28;20049;-76
2022/01/27 08:19:27;;;;;;;273.05;142.75;;;2.50;68.60;;;;;;5033504;28;20562;-76
2022/01/27 08:21:55;;;;;;;253.02;132.55;;;2.50;1.00;;;;;;5033750;28;20536;-76
2022/01/27 08:24:22;;;;;;;248.48;131.95;;;2.40;99.90;;;;;;5034593;28;20128;-75
2022/01/27 08:26:53;;;;;;;245.93;133.30;;;2.30;1.00;;;;;;5023813;28;20056;-76
2022/01/27 08:29:23;;;;;;;226.32;122.55;;;2.30;99.90;;;;;;5026046;28;20434;-77
2022/01/27 08:31:59;;;;;;;224.93;122.47;;;2.20;99.90;;;;;;5020023;28;20411;-76
2022/01/27 08:34:32;;;;;;;221.43;115.97;;;2.30;99.90;;;;;;5038090;28;20544;-76
2022/01/27 08:37:00;;;;;;;229.30;116.65;;;2.50;1.00;;;;;;5014497;28;20054;-76
2022/01/27 08:39:28;;;;;;;210.52;116.50;;;2.60;1.00;;;;;;4999176;28;20042;-77
2022/01/27 08:41:56;;;;;;;213.50;115.50;;;2.70;99.90;;;;;;5015931;28;20128;-76
2022/01/27 08:44:23;;;;;;;176.43;96.47;;;2.80;1.00;;;;;;5017609;28;20488;-76
2022/01/27 08:46:51;;;;;;;188.77;103.05;;;2.90;1.00;;;;;;5017501;28;20056;-76
2022/01/27 08:49:21;;;;;;;187.13;104.03;;;3.00;1.00;;;;;;5019318;28;20503;-76
2022/01/27 08:51:50;;;;;;;214.68;116.70;;;3.00;99.90;;;;;;5014023;28;20096;-75
2022/01/27 08:54:17;;;;;;;201.02;110.35;;;3.20;1.00;;;;;;5009573;28;20037;-76
2022/01/27 08:56:45;;;;;;;193.90;106.90;;;3.40;1.00;;;;;;5011673;28;20125;-76
2022/01/27 08:59:13;;;;;;;201.05;107.82;;;3.70;1.00;;;;;;5005953;28;20069;-77
2022/01/27 09:01:41;;;;;;;185.30;107.25;;;3.90;1.00;;;;;;5016457;28;20038;-76
2022/01/27 09:04:09;;;;;;;176.82;101.40;;;3.80;1.00;;;;;;5030928;28;20046;-77
2022/01/27 09:06:36;;;;;;;212.65;117.53;;;3.70;1.00;;;;;;5018861;28;20149;-76
2022/01/27 09:09:06;;;;;;;207.77;115.05;;;3.80;1.00;;;;;;5033635;28;20042;-76
2022/01/27 09:11:34;;;;;;;203.63;116.07;;;4.00;10.30;;;;;;5019554;28;20046;-76
2022/01/27 09:14:04;;;;;;;206.10;116.45;;;4.20;1.10;;;;;;5025342;28;20072;-77
2022/01/27 09:16:32;;;;;;;196.68;111.72;;;4.20;1.00;;;;;;5015492;28;20053;-76
2022/01/27 09:19:01;;;;;;;213.18;117.75;;;4.30;99.90;;;;;;5017067;28;20038;-76
2022/01/27 09:21:40;;;;;;;199.40;112.78;;;4.30;99.90;;;;;;5007768;28;20072;-77
2022/01/27 09:24:13;;;;;;;206.50;114.93;;;4.30;1.00;;;;;;5015016;28;20474;-76
2022/01/27 09:26:52;;;;;;;203.20;114.35;;;4.50;1.00;;;;;;5008254;28;20053;-76
2022/01/27 09:29:21;;;;;;;210.73;118.45;;;4.80;1.00;;;;;;5007054;28;20045;-77
2022/01/27 09:31:49;;;;;;;203.57;116.28;;;5.00;23.30;;;;;;5034567;28;20125;-77
2022/01/27 09:34:17;;;;;;;206.85;115.55;;;5.10;43.80;;;;;;5017379;28;20461;-76
2022/01/27 09:36:46;;;;;;;195.90;112.32;;;5.10;1.00;;;;;;5016932;28;20333;-78
2022/01/27 09:39:15;;;;;;;190.65;110.13;;;5.10;4.30;;;;;;5032575;28;20107;-76
2022/01/27 09:41:44;;;;;;;189.18;110.47;;;5.10;2.90;;;;;;5027676;28;20493;-76
2022/01/27 09:44:13;;;;;;;198.80;112.85;;;5.10;28.80;;;;;;5036477;28;20052;-75
2022/01/27 09:46:43;;;;;;;194.13;110.30;;;5.10;84.00;;;;;;5070308;28;20064;-76
2022/01/27 09:49:15;;;;;;;193.15;110.88;;;5.00;75.50;;;;;;5034779;28;20037;-76
2022/01/27 09:51:45;;;;;;;196.45;110.65;;;4.90;97.00;;;;;;5038519;28;20227;-77
2022/01/27 09:54:15;;;;;;;203.77;112.68;;;4.60;69.80;;;;;;5033919;28;20053;-77
2022/01/27 09:56:42;;;;;;;213.48;117.05;;;4.50;53.10;;;;;;5035094;28;20041;-77
2022/01/27 09:59:10;;;;;;;208.90;116.30;;;4.50;37.50;;;;;;5028557;28;20046;-77
2022/01/27 10:01:39;;;;;;;212.25;117.88;;;4.70;50.40;;;;;;5021510;28;20092;-77
2022/01/27 10:04:09;;;;;;;207.55;117.82;;;4.90;1.00;;;;;;5026424;28;20092;-77
2022/01/27 10:06:37;;;;;;;204.63;112.95;;;5.10;1.00;;;;;;5020422;28;20060;-77
2022/01/27 10:09:26;;;;;;;202.63;116.88;;;5.30;99.90;;;;;;5039716;28;20108;-76
2022/01/27 10:11:54;;;;;;;209.98;118.47;;;5.30;1.00;;;;;;5021901;28;20418;-76
2022/01/27 10:14:24;;;;;;;189.95;110.25;;;5.60;1.00;;;;;;5016224;28;20053;-76
2022/01/27 10:16:54;;;;;;;174.20;100.32;;;5.90;1.00;;;;;;5016662;28;20060;-77
2022/01/27 10:19:22;;;;;;;174.40;98.47;;;6.20;1.00;;;;;;5016218;28;20076;-75
2022/01/27 10:21:51;;;;;;;168.85;96.25;;;6.40;1.00;;;;;;5018818;28;20073;-77
2022/01/27 10:24:24;;;;;;;172.10;95.45;;;6.60;1.00;;;;;;5016642;28;20044;-76
2022/01/27 10:27:21;;;;;;;152.10;86.90;;;6.70;1.00;;;;;;5015292;28;20507;-76
2022/01/27 10:30:05;;;;;;;138.13;80.78;;;6.80;1.00;;;;;;5017399;28;20038;-75
2022/01/27 10:32:41;;;;;;;117.82;68.88;;;6.90;2.40;;;;;;5017038;28;20495;-75
2022/01/27 10:35:10;;;;;;;113.82;60.50;;;7.00;99.90;;;;;;5016977;28;20060;-77
2022/01/27 10:37:59;;;;;;;94.68;48.95;;;7.10;1.00;;;;;;5022269;28;20054;-76
2022/01/27 10:40:31;;;;;;;111.88;57.67;;;7.10;4.20;;;;;;5021896;28;20046;-76
2022/01/27 10:43:13;;;;;;;106.38;58.45;;;7.10;1.00;;;;;;5015782;28;20133;-76
2022/01/27 10:45:56;;;;;;;119.20;56.95;;;7.20;1.00;;;;;;5017575;28;20517;-76
2022/01/27 10:48:27;;;;;;;136.25;67.82;;;7.20;1.00;;;;;;5016869;28;20388;-76
2022/01/27 10:51:03;;;;;;;129.90;65.00;;;7.40;1.00;;;;;;5016954;28;20124;-75
2022/01/27 10:53:52;;;;;;;124.20;58.67;;;7.50;1.00;;;;;;5015157;28;20049;-76
2022/01/27 10:56:23;;;;;;;81.13;45.10;;;7.60;99.90;;;;;;5016995;28;20049;-74
2022/01/27 10:58:50;;;;;;;89.63;48.45;;;7.60;1.00;;;;;;5015833;28;20468;-77
2022/01/27 11:01:33;;;;;;;93.57;52.80;;;7.60;1.00;;;;;;5016313;28;20052;-76
2022/01/27 11:04:03;;;;;;;91.53;50.90;;;7.80;1.00;;;;;;5015989;28;20124;-76
2022/01/27 11:06:32;;;;;;;86.20;45.92;;;7.80;22.20;;;;;;5016357;28;20105;-76
2022/01/27 11:09:04;;;;;;;87.65;48.15;;;7.60;99.90;;;;;;5016466;28;20096;-75
2022/01/27 11:11:35;;;;;;;94.75;54.20;;;7.40;1.00;;;;;;5017303;28;20042;-76
2022/01/27 11:14:04;;;;;;;90.88;48.20;;;7.30;99.90;;;;;;5017050;28;20491;-77
2022/01/27 11:16:37;;;;;;;84.15;47.00;;;7.20;1.00;;;;;;5015993;28;20046;-76
2022/01/27 11:19:22;;;;;;;79.30;45.17;;;7.20;1.00;;;;;;5016363;28;20395;-77
2022/01/27 11:21:56;;;;;;;84.50;47.25;;;7.10;1.00;;;;;;5015368;28;20054;-76
2022/01/27 11:24:31;;;;;;;87.05;48.80;;;7.20;1.00;;;;;;5016810;28;20057;-76
2022/01/27 11:27:05;;;;;;;88.22;47.13;;;7.20;1.00;;;;;;5015508;28;20140;-76
2022/01/27 11:29:39;;;;;;;87.80;49.90;;;7.30;1.00;;;;;;5016566;28;20096;-75
2022/01/27 11:32:17;;;;;;;69.85;43.67;;;7.30;87.60;;;;;;5017314;28;20133;-74
2022/01/27 11:34:50;;;;;;;76.53;42.65;;;7.30;99.90;;;;;;5017082;28;20042;-74
2022/01/27 11:37:29;;;;;;;76.88;42.80;;;7.40;1.00;;;;;;5014771;28;20062;-74
2022/01/27 11:40:02;;;;;;;71.80;39.28;;;7.50;1.00;;;;;;5014958;28;20077;-73
2022/01/27 11:42:59;;;;;;;66.32;38.38;;;7.60;99.90;;;;;;5014886;28;20065;-74
2022/01/27 11:45:27;;;;;;;;;;;7.60;1.00;;;;;;5017087;28;20542;-76
2022/01/27 11:47:58;;;;;;;77.65;42.17;;;7.80;40.20;;;;;;5017304;28;19925;-75
2022/01/27 11:50:33;;;;;;;66.60;40.00;;;7.90;1.00;;;;;;5015916;28;20056;-75
2022/01/27 11:53:02;;;;;;;63.83;37.83;;;7.90;99.90;;;;;;5017858;28;20096;-76
2022/01/27 11:55:44;;;;;;;58.75;36.65;;;8.00;93.40;;;;;;5017515;28;20042;-76
2022/01/27 11:58:31;;;;;;;60.22;33.42;;;7.80;1.00;;;;;;5015618;28;20479;-77
2022/01/27 12:01:21;;;;;;;67.25;38.08;;;7.80;99.90;;;;;;5016102;28;20088;-76
2022/01/27 12:04:08;;;;;;;56.85;34.58;;;7.70;1.00;;;;;;5016067;28;20041;-75
2022/01/27 12:06:36;;;;;;;64.38;37.50;;;7.90;1.00;;;;;;5016004;28;20078;-76
2022/01/27 12:09:29;;;;;;;61.67;36.28;;;7.90;1.00;;;;;;5016697;28;20042;-75
2022/01/27 12:12:00;;;;;;;62.22;36.45;;;7.90;1.00;;;;;;5016198;28;20080;-76
2022/01/27 12:15:07;;;;;;;62.38;36.95;;;8.00;1.00;;;;;;5016909;28;20045;-76
2022/01/27 12:17:35;;;;;;;68.07;37.33;;;8.10;1.00;;;;;;5030726;28;20061;-75
2022/01/27 12:20:08;;;;;;;61.72;38.38;;;8.20;1.00;;;;;;5032406;28;20045;-75
2022/01/27 12:23:01;;;;;;;72.15;41.17;;;8.30;1.00;;;;;;5015258;28;20048;-76
2022/01/27 12:25:46;;;;;;;61.95;36.92;;;8.20;1.00;;;;;;5016816;28;20046;-76
2022/01/27 12:28:13;;;;;;;64.40;37.47;;;8.40;1.00;;;;;;5015821;28;20046;-76
2022/01/27 12:30:54;;;;;;;72.00;38.67;;;8.40;1.00;;;;;;5016074;28;20416;-75
2022/01/27 12:33:22;;;;;;;68.20;38.38;;;8.50;1.00;;;;;;5014366;28;20097;-75
2022/01/27 12:35:54;;;;;;;71.13;39.35;;;8.90;1.00;;;;;;5014090;28;20073;-76
2022/01/27 12:38:21;;;;;;;65.43;36.78;;;8.90;1.00;;;;;;5016773;28;20506;-76
2022/01/27 12:40:56;;;;;;;63.72;38.65;;;8.90;1.00;;;;;;5014142;28;20050;-76
2022/01/27 12:43:23;;;;;;;57.65;36.65;;;9.00;1.00;;;;;;5014571;28;20037;-76
2022/01/27 12:45:53;;;;;;;60.80;35.17;;;8.90;1.00;;;;;;5017029;28;20045;-76
2022/01/27 12:48:25;;;;;;;51.67;31.45;;;9.10;1.00;;;;;;5014325;28;20049;-76
2022/01/27 12:50:59;;;;;;;54.33;30.88;;;8.90;1.00;;;;;;5015040;28;20042;-76
2022/01/27 12:53:29;;;;;;;41.33;26.50;;;8.90;1.00;;;;;;5014878;28;20070;-76
2022/01/27 12:55:57;;;;;;;47.15;28.10;;;8.90;1.00;;;;;;5014478;28;20505;-75
2022/01/27 12:58:30;;;;;;;45.95;25.70;;;8.90;1.00;;;;;;5014745;28;20046;-75
2022/01/27 13:00:59;;;;;;;40.90;24.60;;;9.00;1.00;;;;;;5030292;28;20136;-75
2022/01/27 13:03:26;;;;;;;44.70;26.33;;;9.20;1.00;;;;;;5013383;28;20458;-75
2022/01/27 13:05:59;;;;;;;42.67;27.50;;;9.30;1.00;;;;;;5014873;28;20053;-75
2022/01/27 13:08:30;;;;;;;44.60;25.80;;;9.60;1.00;;;;;;5024170;28;20049;-76
2022/01/27 13:11:07;;;;;;;47.30;26.45;;;9.70;1.00;;;;;;5024420;28;20229;-76